sensor_id;sensor_type;location;lat;lon;timestamp;temperature;humidity
7936;DHT22;4013;49.744;8.118;2023-10-09T04:31:38;14.80;99.90
7936;DHT22;4013;49.744;8.118;2023-10-09T04:34:05;14.80;99.90
7936;DHT22;4013;49.744;8.118;2023-10-09T04:36:55;14.80;99.90
7936;DHT22;4013;49.744;8.118;2023-10-09T04:39:26;14.70;99.90
7936;DHT22;4013;49.744;8.118;2023-10-09T04:42:03;14.50;99.90
7936;DHT22;4013;49.744;8.118;2023-10-09T04:44:45;14.50;99.90
7936;DHT22;4013;49.744;8.118;2023-10-09T04:47:47;14.50;99.90
7936;DHT22;4013;49.744;8.118;2023-10-09T04:50:23;14.50;99.90
7936;DHT22;4013;49.744;8.118;2023-10-09T04:53:08;14.60;99.90
7936;DHT22;4013;49.744;8.118;2023-10-09T04:55:48;14.60;99.90
7936;DHT22;4013;49.744;8.118;2023-10-09T04:58:23;14.60;99.90
7936;DHT22;4013;49.744;8.118;2023-10-09T05:00:52;14.60;99.90
7936;DHT22;4013;49.744;8.118;2023-10-09T05:03:32;14.60;99.90
7936;DHT22;4013;49.744;8.118;2023-10-09T05:06:15;14.60;99.90
7936;DHT22;4013;49.744;8.118;2023-10-09T05:09:08;14.50;99.90
7936;DHT22;4013;49.744;8.118;2023-10-09T05:11:34;14.50;99.90
7936;DHT22;4013;49.744;8.118;2023-10-09T05:14:19;14.40;99.90
7936;DHT22;4013;49.744;8.118;2023-10-09T05:16:52;14.50;99.90
7936;DHT22;4013;49.744;8.118;2023-10-09T05:19:28;14.50;99.90
7936;DHT22;4013;49.744;8.118;2023-10-09T05:22:20;14.50;99.90
7936;DHT22;4013;49.744;8.118;2023-10-09T05:24:56;14.40;99.90
7936;DHT22;4013;49.744;8.118;2023-10-09T05:27:24;14.40;99.90
7936;DHT22;4013;49.744;8.118;2023-10-09T05:30:07;14.50;99.90
7936;DHT22;4013;49.744;8.118;2023-10-09T05:32:52;14.50;99.90
7936;DHT22;4013;49.744;8.118;2023-10-09T05:35:22;14.60;99.90
7936;DHT22;4013;49.744;8.118;2023-10-09T05:38:08;14.60;99.90
7936;DHT22;4013;49.744;8.118;2023-10-09T05:40:42;14.70;99.90
7936;DHT22;4013;49.744;8.118;2023-10-09T05:43:18;14.70;99.90
7936;DHT22;4013;49.744;8.118;2023-10-09T05:45:59;14.60;99.90
7936;DHT22;4013;49.744;8.118;2023-10-09T05:48:35;14.60;99.90
7936;DHT22;4013;49.744;8.118;2023-10-09T05:51:22;14.70;99.90
7936;DHT22;4013;49.744;8.118;2023-10-09T05:54:08;14.60;99.90
7936;DHT22;4013;49.744;8.118;2023-10-09T05:56:49;14.70;99.90
7936;DHT22;4013;49.744;8.118;2023-10-09T05:59:33;14.80;99.90
7936;DHT22;4013;49.744;8.118;2023-10-09T06:02:17;14.80;99.90
7936;DHT22;4013;49.744;8.118;2023-10-09T06:04:58;14.90;99.90
7936;DHT22;4013;49.744;8.118;2023-10-09T06:07:31;14.90;99.90
7936;DHT22;4013;49.744;8.118;2023-10-09T06:10:27;14.90;99.90
7936;DHT22;4013;49.744;8.118;2023-10-09T06:13:04;14.90;99.90
7936;DHT22;4013;49.744;8.118;2023-10-09T06:15:36;14.90;99.90
7936;DHT22;4013;49.744;8.118;2023-10-09T06:18:16;15.00;99.90
7936;DHT22;4013;49.744;8.118;2023-10-09T06:21:00;15.00;99.90
7936;DHT22;4013;49.744;8.118;2023-10-09T06:23:57;15.10;99.90
7936;DHT22;4013;49.744;8.118;2023-10-09T06:26:35;15.10;99.90
7936;DHT22;4013;49.744;8.118;2023-10-09T06:29:02;15.30;99.90
7936;DHT22;4013;49.744;8.118;2023-10-09T06:31:42;15.40;99.90
7936;DHT22;4013;49.744;8.118;2023-10-09T06:34:28;15.50;99.90
7936;DHT22;4013;49.744;8.118;2023-10-09T06:37:05;15.50;99.90
7936;DHT22;4013;49.744;8.118;2023-10-09T06:39:35;15.50;99.90
7936;DHT22;4013;49.744;8.118;2023-10-09T06:42:37;15.40;99.90
7936;DHT22;4013;49.744;8.118;2023-10-09T06:45:16;15.40;99.90
7936;DHT22;4013;49.744;8.118;2023-10-09T06:47:46;15.20;99.90
7936;DHT22;4013;49.744;8.118;2023-10-09T06:50:21;15.20;99.90
7936;DHT22;4013;49.744;8.118;2023-10-09T06:52:51;15.20;99.90
7936;DHT22;4013;49.744;8.118;2023-10-09T06:55:25;15.30;99.90
7936;DHT22;4013;49.744;8.118;2023-10-09T06:58:01;15.30;99.90
7936;DHT22;4013;49.744;8.118;2023-10-09T07:00:27;15.30;99.90
7936;DHT22;4013;49.744;8.118;2023-10-09T07:03:11;15.30;99.90
7936;DHT22;4013;49.744;8.118;2023-10-09T07:05:37;15.30;99.90
7936;DHT22;4013;49.744;8.118;2023-10-09T07:08:25;15.30;99.90
7936;DHT22;4013;49.744;8.118;2023-10-09T07:10:59;15.30;99.90
7936;DHT22;4013;49.744;8.118;2023-10-09T07:13:46;15.40;99.90
7936;DHT22;4013;49.744;8.118;2023-10-09T07:16:21;15.30;99.90
7936;DHT22;4013;49.744;8.118;2023-10-09T07:18:54;15.30;99.90
7936;DHT22;4013;49.744;8.118;2023-10-09T07:21:35;15.30;99.90
7936;DHT22;4013;49.744;8.118;2023-10-09T07:24:04;15.40;99.90
7936;DHT22;4013;49.744;8.118;2023-10-09T07:26:41;15.40;99.90
7936;DHT22;4013;49.744;8.118;2023-10-09T07:29:12;15.40;99.90
7936;DHT22;4013;49.744;8.118;2023-10-09T07:31:49;15.50;99.90
7936;DHT22;4013;49.744;8.118;2023-10-09T07:34:23;15.50;99.90
7936;DHT22;4013;49.744;8.118;2023-10-09T07:37:03;15.60;99.90
7936;DHT22;4013;49.744;8.118;2023-10-09T07:39:30;15.60;99.90
7936;DHT22;4013;49.744;8.118;2023-10-09T07:42:04;15.60;99.90
7936;DHT22;4013;49.744;8.118;2023-10-09T07:44:52;15.60;99.90
7936;DHT22;4013;49.744;8.118;2023-10-09T07:47:21;15.70;99.90
7936;DHT22;4013;49.744;8.118;2023-10-09T07:49:58;15.60;99.90
7936;DHT22;4013;49.744;8.118;2023-10-09T07:52:28;15.70;99.90
7936;DHT22;4013;49.744;8.118;2023-10-09T07:54:55;15.70;99.90
7936;DHT22;4013;49.744;8.118;2023-10-09T07:57:29;15.80;99.90
7936;DHT22;4013;49.744;8.118;2023-10-09T08:00:04;15.80;99.90
7936;DHT22;4013;49.744;8.118;2023-10-09T08:02:38;15.90;99.90
7936;DHT22;4013;49.744;8.118;2023-10-09T08:05:05;15.90;99.90
7936;DHT22;4013;49.744;8.118;2023-10-09T08:07:44;16.00;99.90
7936;DHT22;4013;49.744;8.118;2023-10-09T08:10:20;16.10;99.90
7936;DHT22;4013;49.744;8.118;2023-10-09T08:13:05;16.20;99.90
7936;DHT22;4013;49.744;8.118;2023-10-09T08:16:02;16.40;99.90
7936;DHT22;4013;49.744;8.118;2023-10-09T08:18:30;16.60;99.90
7936;DHT22;4013;49.744;8.118;2023-10-09T08:20:57;16.70;99.90
7936;DHT22;4013;49.744;8.118;2023-10-09T08:23:41;16.80;99.90
7936;DHT22;4013;49.744;8.118;2023-10-09T08:26:18;16.80;99.90
7936;DHT22;4013;49.744;8.118;2023-10-09T08:28:55;16.90;99.90
7936;DHT22;4013;49.744;8.118;2023-10-09T08:31:43;16.90;99.90
7936;DHT22;4013;49.744;8.118;2023-10-09T08:34:22;16.90;99.90
7936;DHT22;4013;49.744;8.118;2023-10-09T08:36:51;16.90;99.90
7936;DHT22;4013;49.744;8.118;2023-10-09T08:39:19;17.00;99.90
7936;DHT22;4013;49.744;8.118;2023-10-09T08:41:52;17.10;99.90
7936;DHT22;4013;49.744;8.118;2023-10-09T08:44:20;17.10;99.90
7936;DHT22;4013;49.744;8.118;2023-10-09T08:46:51;17.10;99.90
7936;DHT22;4013;49.744;8.118;2023-10-09T08:49:20;17.10;99.90
7936;DHT22;4013;49.744;8.118;2023-10-09T08:51:47;17.20;99.90
7936;DHT22;4013;49.744;8.118;2023-10-09T08:54:14;17.30;99.90
7936;DHT22;4013;49.744;8.118;2023-10-09T08:56:42;17.30;99.90
7936;DHT22;4013;49.744;8.118;2023-10-09T08:59:15;17.30;99.90
7936;DHT22;4013;49.744;8.118;2023-10-09T09:01:43;17.40;99.90
7936;DHT22;4013;49.744;8.118;2023-10-09T09:04:12;17.50;99.90
7936;DHT22;4013;49.744;8.118;2023-10-09T09:06:58;17.60;99.90
7936;DHT22;4013;49.744;8.118;2023-10-09T09:09:27;17.80;99.90
7936;DHT22;4013;49.744;8.118;2023-10-09T09:11:57;17.80;99.90
7936;DHT22;4013;49.744;8.118;2023-10-09T09:14:34;17.90;99.90
7936;DHT22;4013;49.744;8.118;2023-10-09T09:17:02;17.90;99.90
7936;DHT22;4013;49.744;8.118;2023-10-09T09:19:32;18.10;99.90
7936;DHT22;4013;49.744;8.118;2023-10-09T09:22:03;18.20;99.90
7936;DHT22;4013;49.744;8.118;2023-10-09T09:24:38;18.30;99.90
7936;DHT22;4013;49.744;8.118;2023-10-09T09:27:11;18.20;99.90
7936;DHT22;4013;49.744;8.118;2023-10-09T09:29:43;18.30;99.90
7936;DHT22;4013;49.744;8.118;2023-10-09T09:32:27;18.30;99.90
7936;DHT22;4013;49.744;8.118;2023-10-09T09:34:56;18.20;99.90
7936;DHT22;4013;49.744;8.118;2023-10-09T09:37:26;18.20;99.90
7936;DHT22;4013;49.744;8.118;2023-10-09T09:39:57;18.30;99.90
7936;DHT22;4013;49.744;8.118;2023-10-09T09:42:26;18.30;99.90
7936;DHT22;4013;49.744;8.118;2023-10-09T09:44:57;18.30;99.90
7936;DHT22;4013;49.744;8.118;2023-10-09T09:47:25;18.30;99.90
7936;DHT22;4013;49.744;8.118;2023-10-09T09:49:52;18.30;99.90
7936;DHT22;4013;49.744;8.118;2023-10-09T09:52:27;18.30;99.90
7936;DHT22;4013;49.744;8.118;2023-10-09T09:54:54;18.30;99.90
7936;DHT22;4013;49.744;8.118;2023-10-09T09:57:23;18.40;99.90
7936;DHT22;4013;49.744;8.118;2023-10-09T09:59:51;18.60;99.90
7936;DHT22;4013;49.744;8.118;2023-10-09T10:02:22;18.70;99.90
7936;DHT22;4013;49.744;8.118;2023-10-09T10:04:53;18.70;99.90
7936;DHT22;4013;49.744;8.118;2023-10-09T10:07:22;18.90;99.90
7936;DHT22;4013;49.744;8.118;2023-10-09T10:09:52;18.90;99.90
7936;DHT22;4013;49.744;8.118;2023-10-09T10:15:07;19.10;99.90
7936;DHT22;4013;49.744;8.118;2023-10-09T10:17:54;19.20;99.90
7936;DHT22;4013;49.744;8.118;2023-10-09T10:20:35;19.20;99.90
7936;DHT22;4013;49.744;8.118;2023-10-09T10:23:25;19.20;99.90
7936;DHT22;4013;49.744;8.118;2023-10-09T10:26:03;19.30;99.90
7936;DHT22;4013;49.744;8.118;2023-10-09T10:28:42;19.30;99.90
7936;DHT22;4013;49.744;8.118;2023-10-09T10:31:11;19.30;99.90
7936;DHT22;4013;49.744;8.118;2023-10-09T10:36:24;19.40;99.90
7936;DHT22;4013;49.744;8.118;2023-10-09T10:38:58;19.40;99.90
7936;DHT22;4013;49.744;8.118;2023-10-09T10:41:31;19.60;99.90
7936;DHT22;4013;49.744;8.118;2023-10-09T10:44:02;19.60;99.90
7936;DHT22;4013;49.744;8.118;2023-10-09T10:46:49;19.60;99.90
7936;DHT22;4013;49.744;8.118;2023-10-09T10:49:18;19.80;99.90
7936;DHT22;4013;49.744;8.118;2023-10-09T10:51:47;19.80;99.90
7936;DHT22;4013;49.744;8.118;2023-10-09T10:54:21;19.80;99.90
7936;DHT22;4013;49.744;8.118;2023-10-09T10:57:15;19.90;99.90
7936;DHT22;4013;49.744;8.118;2023-10-09T10:59:54;19.90;99.90
7936;DHT22;4013;49.744;8.118;2023-10-09T11:02:39;19.90;99.90
7936;DHT22;4013;49.744;8.118;2023-10-09T11:05:06;20.10;99.90
7936;DHT22;4013;49.744;8.118;2023-10-09T11:07:49;20.10;99.90
7936;DHT22;4013;49.744;8.118;2023-10-09T11:10:21;20.20;99.90
7936;DHT22;4013;49.744;8.118;2023-10-09T11:12:56;20.30;99.90
7936;DHT22;4013;49.744;8.118;2023-10-09T11:15:36;20.40;99.90
7936;DHT22;4013;49.744;8.118;2023-10-09T11:18:12;20.60;99.90
7936;DHT22;4013;49.744;8.118;2023-10-09T11:20:53;20.60;99.90
7936;DHT22;4013;49.744;8.118;2023-10-09T11:23:43;20.70;99.90
7936;DHT22;4013;49.744;8.118;2023-10-09T11:26:18;20.70;99.90
7936;DHT22;4013;49.744;8.118;2023-10-09T11:29:09;20.70;99.90
7936;DHT22;4013;49.744;8.118;2023-10-09T11:31:58;20.70;99.90
7936;DHT22;4013;49.744;8.118;2023-10-09T11:34:25;20.90;99.90
7936;DHT22;4013;49.744;8.118;2023-10-09T11:36:57;21.00;99.90
7936;DHT22;4013;49.744;8.118;2023-10-09T11:39:24;21.20;99.90
7936;DHT22;4013;49.744;8.118;2023-10-09T11:42:06;21.40;99.90
7936;DHT22;4013;49.744;8.118;2023-10-09T11:44:37;21.50;99.90
7936;DHT22;4013;49.744;8.118;2023-10-09T11:47:05;21.70;99.90
7936;DHT22;4013;49.744;8.118;2023-10-09T11:49:48;21.80;99.90
7936;DHT22;4013;49.744;8.118;2023-10-09T11:52:22;21.90;99.90
7936;DHT22;4013;49.744;8.118;2023-10-09T11:55:03;21.90;99.90
7936;DHT22;4013;49.744;8.118;2023-10-09T11:57:32;21.90;94.00
7936;DHT22;4013;49.744;8.118;2023-10-09T12:00:02;22.00;94.20
7936;DHT22;4013;49.744;8.118;2023-10-09T12:02:54;22.20;98.80
7936;DHT22;4013;49.744;8.118;2023-10-09T12:05:21;22.30;95.00
7936;DHT22;4013;49.744;8.118;2023-10-09T12:07:48;22.30;99.90
7936;DHT22;4013;49.744;8.118;2023-10-09T12:10:19;22.30;96.80
7936;DHT22;4013;49.744;8.118;2023-10-09T12:12:50;22.30;96.70
7936;DHT22;4013;49.744;8.118;2023-10-09T12:15:19;22.30;98.50
7936;DHT22;4013;49.744;8.118;2023-10-09T12:17:46;22.40;99.90
7936;DHT22;4013;49.744;8.118;2023-10-09T12:20:15;22.40;95.70
7936;DHT22;4013;49.744;8.118;2023-10-09T12:22:56;22.50;99.90
7936;DHT22;4013;49.744;8.118;2023-10-09T12:25:24;22.60;99.90
7936;DHT22;4013;49.744;8.118;2023-10-09T12:27:51;22.60;99.90
7936;DHT22;4013;49.744;8.118;2023-10-09T12:30:22;22.70;99.90
7936;DHT22;4013;49.744;8.118;2023-10-09T12:32:52;22.80;99.90
7936;DHT22;4013;49.744;8.118;2023-10-09T12:35:19;22.90;99.90
7936;DHT22;4013;49.744;8.118;2023-10-09T12:37:46;23.00;99.90
7936;DHT22;4013;49.744;8.118;2023-10-09T12:40:15;23.10;99.90
7936;DHT22;4013;49.744;8.118;2023-10-09T12:42:50;23.10;99.90
7936;DHT22;4013;49.744;8.118;2023-10-09T12:45:18;23.10;99.90
7936;DHT22;4013;49.744;8.118;2023-10-09T12:47:53;23.10;98.20
7936;DHT22;4013;49.744;8.118;2023-10-09T12:50:24;23.20;99.90
7936;DHT22;4013;49.744;8.118;2023-10-09T12:52:55;23.30;99.90
7936;DHT22;4013;49.744;8.118;2023-10-09T12:55:22;23.40;68.40
7936;DHT22;4013;49.744;8.118;2023-10-09T12:57:57;23.50;96.00
7936;DHT22;4013;49.744;8.118;2023-10-09T13:00:26;23.50;94.30
7936;DHT22;4013;49.744;8.118;2023-10-09T13:02:55;23.60;99.90
7936;DHT22;4013;49.744;8.118;2023-10-09T13:05:22;23.70;99.90
7936;DHT22;4013;49.744;8.118;2023-10-09T13:07:52;23.70;92.60
7936;DHT22;4013;49.744;8.118;2023-10-09T13:10:23;23.80;87.90
7936;DHT22;4013;49.744;8.118;2023-10-09T13:12:51;24.00;83.70
7936;DHT22;4013;49.744;8.118;2023-10-09T13:15:21;24.10;99.90
7936;DHT22;4013;49.744;8.118;2023-10-09T13:17:48;24.10;90.30
7936;DHT22;4013;49.744;8.118;2023-10-09T13:20:20;24.30;99.90
7936;DHT22;4013;49.744;8.118;2023-10-09T13:22:47;24.70;99.90
7936;DHT22;4013;49.744;8.118;2023-10-09T13:25:14;25.10;99.90
7936;DHT22;4013;49.744;8.118;2023-10-09T13:27:42;25.50;84.30
7936;DHT22;4013;49.744;8.118;2023-10-09T13:30:16;25.50;99.90
7936;DHT22;4013;49.744;8.118;2023-10-09T13:32:47;25.50;94.20
7936;DHT22;4013;49.744;8.118;2023-10-09T13:35:15;25.40;99.90
7936;DHT22;4013;49.744;8.118;2023-10-09T13:37:45;25.20;99.90
7936;DHT22;4013;49.744;8.118;2023-10-09T13:40:20;24.90;99.90
7936;DHT22;4013;49.744;8.118;2023-10-09T13:42:53;24.70;95.60
7936;DHT22;4013;49.744;8.118;2023-10-09T13:45:24;24.30;84.60
7936;DHT22;4013;49.744;8.118;2023-10-09T13:47:52;24.20;99.30
7936;DHT22;4013;49.744;8.118;2023-10-09T13:50:20;24.20;99.90
7936;DHT22;4013;49.744;8.118;2023-10-09T13:52:49;24.20;99.90
7936;DHT22;4013;49.744;8.118;2023-10-09T13:55:19;24.30;99.90
7936;DHT22;4013;49.744;8.118;2023-10-09T13:57:46;24.30;99.90
7936;DHT22;4013;49.744;8.118;2023-10-09T14:00:14;24.20;99.90
7936;DHT22;4013;49.744;8.118;2023-10-09T14:02:44;24.10;99.90
7936;DHT22;4013;49.744;8.118;2023-10-09T14:05:16;24.00;99.90
7936;DHT22;4013;49.744;8.118;2023-10-09T14:07:45;24.10;99.90
7936;DHT22;4013;49.744;8.118;2023-10-09T14:10:14;24.00;99.90
7936;DHT22;4013;49.744;8.118;2023-10-09T14:12:43;24.00;99.90
7936;DHT22;4013;49.744;8.118;2023-10-09T14:15:10;24.00;99.90
7936;DHT22;4013;49.744;8.118;2023-10-09T14:17:42;23.90;99.90
7936;DHT22;4013;49.744;8.118;2023-10-09T14:20:12;23.90;99.90
7936;DHT22;4013;49.744;8.118;2023-10-09T14:22:57;23.90;99.90
7936;DHT22;4013;49.744;8.118;2023-10-09T14:25:33;23.80;99.90
7936;DHT22;4013;49.744;8.118;2023-10-09T14:28:03;23.90;99.90
7936;DHT22;4013;49.744;8.118;2023-10-09T14:30:33;23.90;99.90
7936;DHT22;4013;49.744;8.118;2023-10-09T14:33:07;24.00;99.90
7936;DHT22;4013;49.744;8.118;2023-10-09T14:35:38;24.10;99.90
7936;DHT22;4013;49.744;8.118;2023-10-09T14:38:05;24.20;99.90
7936;DHT22;4013;49.744;8.118;2023-10-09T14:40:39;24.20;99.90
7936;DHT22;4013;49.744;8.118;2023-10-09T14:43:07;24.20;99.90
7936;DHT22;4013;49.744;8.118;2023-10-09T14:45:44;24.20;99.90
7936;DHT22;4013;49.744;8.118;2023-10-09T14:48:14;24.10;99.90
7936;DHT22;4013;49.744;8.118;2023-10-09T14:50:46;24.00;99.90
7936;DHT22;4013;49.744;8.118;2023-10-09T14:53:13;23.90;99.90
7936;DHT22;4013;49.744;8.118;2023-10-09T14:55:42;23.90;99.90
7936;DHT22;4013;49.744;8.118;2023-10-09T14:58:11;23.90;99.90
7936;DHT22;4013;49.744;8.118;2023-10-09T15:00:38;23.80;99.90
7936;DHT22;4013;49.744;8.118;2023-10-09T15:03:12;23.80;99.90
7936;DHT22;4013;49.744;8.118;2023-10-09T15:05:40;23.60;99.90
7936;DHT22;4013;49.744;8.118;2023-10-09T15:08:07;23.60;99.90
7936;DHT22;4013;49.744;8.118;2023-10-09T15:10:45;23.50;99.90
7936;DHT22;4013;49.744;8.118;2023-10-09T15:13:12;23.50;99.90
7936;DHT22;4013;49.744;8.118;2023-10-09T15:15:41;23.50;99.90
7936;DHT22;4013;49.744;8.118;2023-10-09T15:18:09;23.40;99.90
7936;DHT22;4013;49.744;8.118;2023-10-09T15:20:38;23.40;99.90
7936;DHT22;4013;49.744;8.118;2023-10-09T15:23:06;23.30;99.90
7936;DHT22;4013;49.744;8.118;2023-10-09T15:25:33;23.30;99.90
7936;DHT22;4013;49.744;8.118;2023-10-09T15:28:02;23.20;99.90
7936;DHT22;4013;49.744;8.118;2023-10-09T15:30:29;23.20;99.90
7936;DHT22;4013;49.744;8.118;2023-10-09T15:32:57;23.20;99.90
7936;DHT22;4013;49.744;8.118;2023-10-09T15:35:24;23.20;99.90
7936;DHT22;4013;49.744;8.118;2023-10-09T15:37:51;23.10;98.40
7936;DHT22;4013;49.744;8.118;2023-10-09T15:40:18;23.00;99.90
7936;DHT22;4013;49.744;8.118;2023-10-09T15:42:49;23.00;99.90
7936;DHT22;4013;49.744;8.118;2023-10-09T15:45:23;23.00;99.90
7936;DHT22;4013;49.744;8.118;2023-10-09T15:47:53;23.00;99.90
7936;DHT22;4013;49.744;8.118;2023-10-09T15:50:21;23.00;99.90
7936;DHT22;4013;49.744;8.118;2023-10-09T15:52:49;22.90;99.90
7936;DHT22;4013;49.744;8.118;2023-10-09T15:55:17;22.90;99.90
7936;DHT22;4013;49.744;8.118;2023-10-09T15:57:46;22.90;99.90
7936;DHT22;4013;49.744;8.118;2023-10-09T16:00:14;22.80;99.90
7936;DHT22;4013;49.744;8.118;2023-10-09T16:02:45;22.90;99.90
7936;DHT22;4013;49.744;8.118;2023-10-09T16:05:13;22.80;99.90
7936;DHT22;4013;49.744;8.118;2023-10-09T16:07:42;22.80;99.90
7936;DHT22;4013;49.744;8.118;2023-10-09T16:10:09;22.70;99.90
7936;DHT22;4013;49.744;8.118;2023-10-09T16:12:37;22.70;99.90
7936;DHT22;4013;49.744;8.118;2023-10-09T16:15:04;22.60;99.90
7936;DHT22;4013;49.744;8.118;2023-10-09T16:17:32;22.60;99.90
7936;DHT22;4013;49.744;8.118;2023-10-09T16:20:00;22.50;99.90
7936;DHT22;4013;49.744;8.118;2023-10-09T16:22:28;22.50;99.90
7936;DHT22;4013;49.744;8.118;2023-10-09T16:24:55;22.40;99.90
7936;DHT22;4013;49.744;8.118;2023-10-09T16:27:22;22.40;99.90
7936;DHT22;4013;49.744;8.118;2023-10-09T16:29:50;22.30;99.90
7936;DHT22;4013;49.744;8.118;2023-10-09T16:32:17;22.10;99.90
7936;DHT22;4013;49.744;8.118;2023-10-09T16:34:48;22.10;99.90
7936;DHT22;4013;49.744;8.118;2023-10-09T16:37:16;22.00;99.90
7936;DHT22;4013;49.744;8.118;2023-10-09T16:39:47;21.90;99.90
7936;DHT22;4013;49.744;8.118;2023-10-09T16:42:14;21.90;99.90
7936;DHT22;4013;49.744;8.118;2023-10-09T16:44:41;21.80;99.90
7936;DHT22;4013;49.744;8.118;2023-10-09T16:47:11;21.70;99.90
7936;DHT22;4013;49.744;8.118;2023-10-09T16:49:38;21.70;99.90
7936;DHT22;4013;49.744;8.118;2023-10-09T16:52:06;21.60;99.90
7936;DHT22;4013;49.744;8.118;2023-10-09T16:54:38;21.60;99.90
7936;DHT22;4013;49.744;8.118;2023-10-09T16:57:06;21.50;99.90
7936;DHT22;4013;49.744;8.118;2023-10-09T16:59:35;21.50;99.90
7936;DHT22;4013;49.744;8.118;2023-10-09T17:02:01;21.40;99.90
7936;DHT22;4013;49.744;8.118;2023-10-09T17:04:31;21.30;99.90
7936;DHT22;4013;49.744;8.118;2023-10-09T17:06:58;21.20;99.90
7936;DHT22;4013;49.744;8.118;2023-10-09T17:09:26;21.20;99.90
7936;DHT22;4013;49.744;8.118;2023-10-09T17:11:57;21.10;99.90
7936;DHT22;4013;49.744;8.118;2023-10-09T17:14:25;21.10;99.90
7936;DHT22;4013;49.744;8.118;2023-10-09T17:16:53;21.00;99.90
7936;DHT22;4013;49.744;8.118;2023-10-09T17:19:22;21.00;99.90
7936;DHT22;4013;49.744;8.118;2023-10-09T17:21:50;21.00;99.90
7936;DHT22;4013;49.744;8.118;2023-10-09T17:24:17;20.90;99.90
7936;DHT22;4013;49.744;8.118;2023-10-09T17:26:45;20.90;99.90
7936;DHT22;4013;49.744;8.118;2023-10-09T17:29:18;20.80;99.90
7936;DHT22;4013;49.744;8.118;2023-10-09T17:31:45;20.70;99.90
7936;DHT22;4013;49.744;8.118;2023-10-09T17:34:13;20.70;99.90
7936;DHT22;4013;49.744;8.118;2023-10-09T17:36:43;20.70;99.90
7936;DHT22;4013;49.744;8.118;2023-10-09T17:39:12;20.70;99.90
7936;DHT22;4013;49.744;8.118;2023-10-09T17:41:40;20.60;99.90
7936;DHT22;4013;49.744;8.118;2023-10-09T17:44:07;20.60;99.90
7936;DHT22;4013;49.744;8.118;2023-10-09T17:46:38;20.50;99.90
7936;DHT22;4013;49.744;8.118;2023-10-09T17:49:05;20.50;99.90
7936;DHT22;4013;49.744;8.118;2023-10-09T17:51:32;20.40;99.90
7936;DHT22;4013;49.744;8.118;2023-10-09T17:53:59;20.40;99.90
7936;DHT22;4013;49.744;8.118;2023-10-09T17:56:26;20.40;99.90
7936;DHT22;4013;49.744;8.118;2023-10-09T17:58:54;20.40;99.90
7936;DHT22;4013;49.744;8.118;2023-10-09T18:01:21;20.30;99.90
7936;DHT22;4013;49.744;8.118;2023-10-09T18:03:51;20.30;99.90
7936;DHT22;4013;49.744;8.118;2023-10-09T18:06:18;20.30;99.90
7936;DHT22;4013;49.744;8.118;2023-10-09T18:08:45;20.20;99.90
7936;DHT22;4013;49.744;8.118;2023-10-09T18:11:13;20.10;99.90
7936;DHT22;4013;49.744;8.118;2023-10-09T18:13:42;20.00;99.90
7936;DHT22;4013;49.744;8.118;2023-10-09T18:16:09;20.00;99.90
7936;DHT22;4013;49.744;8.118;2023-10-09T18:18:37;20.00;99.90
7936;DHT22;4013;49.744;8.118;2023-10-09T18:21:07;19.90;99.90
7936;DHT22;4013;49.744;8.118;2023-10-09T18:23:34;19.90;99.90
7936;DHT22;4013;49.744;8.118;2023-10-09T18:26:02;19.90;99.90
7936;DHT22;4013;49.744;8.118;2023-10-09T18:28:31;19.90;99.90
7936;DHT22;4013;49.744;8.118;2023-10-09T18:31:01;19.90;99.90
7936;DHT22;4013;49.744;8.118;2023-10-09T18:33:31;19.80;99.90
7936;DHT22;4013;49.744;8.118;2023-10-09T18:35:58;19.80;99.90
7936;DHT22;4013;49.744;8.118;2023-10-09T18:38:30;19.80;99.90
7936;DHT22;4013;49.744;8.118;2023-10-09T18:40:57;19.80;99.90
7936;DHT22;4013;49.744;8.118;2023-10-09T18:43:26;19.80;99.90
7936;DHT22;4013;49.744;8.118;2023-10-09T18:45:53;19.70;99.90
7936;DHT22;4013;49.744;8.118;2023-10-09T18:48:22;19.70;99.90
7936;DHT22;4013;49.744;8.118;2023-10-09T18:50:53;19.70;99.90
7936;DHT22;4013;49.744;8.118;2023-10-09T18:53:21;19.70;99.90
7936;DHT22;4013;49.744;8.118;2023-10-09T18:55:50;19.70;99.90
7936;DHT22;4013;49.744;8.118;2023-10-09T18:58:17;19.70;99.90
7936;DHT22;4013;49.744;8.118;2023-10-09T19:00:44;19.70;99.90
7936;DHT22;4013;49.744;8.118;2023-10-09T19:03:12;19.60;99.90
7936;DHT22;4013;49.744;8.118;2023-10-09T19:05:41;19.60;99.90
7936;DHT22;4013;49.744;8.118;2023-10-09T19:08:09;19.60;99.90
7936;DHT22;4013;49.744;8.118;2023-10-09T19:10:36;19.60;99.90
7936;DHT22;4013;49.744;8.118;2023-10-09T19:13:05;19.60;99.90
7936;DHT22;4013;49.744;8.118;2023-10-09T19:15:35;19.60;99.90
7936;DHT22;4013;49.744;8.118;2023-10-09T19:18:03;19.50;99.90
7936;DHT22;4013;49.744;8.118;2023-10-09T19:20:30;19.40;99.90
7936;DHT22;4013;49.744;8.118;2023-10-09T19:22:58;19.30;99.90
7936;DHT22;4013;49.744;8.118;2023-10-09T19:25:25;19.30;99.90
7936;DHT22;4013;49.744;8.118;2023-10-09T19:27:58;19.30;99.90
7936;DHT22;4013;49.744;8.118;2023-10-09T19:30:26;19.30;99.90
7936;DHT22;4013;49.744;8.118;2023-10-09T19:32:56;19.30;99.90
7936;DHT22;4013;49.744;8.118;2023-10-09T19:35:26;19.30;99.90
7936;DHT22;4013;49.744;8.118;2023-10-09T19:37:54;19.30;99.90
7936;DHT22;4013;49.744;8.118;2023-10-09T19:40:21;19.30;99.90
7936;DHT22;4013;49.744;8.118;2023-10-09T19:42:48;19.40;99.90
7936;DHT22;4013;49.744;8.118;2023-10-09T19:45:15;19.40;99.90
7936;DHT22;4013;49.744;8.118;2023-10-09T19:47:47;19.40;99.90
7936;DHT22;4013;49.744;8.118;2023-10-09T19:50:15;19.30;99.90
7936;DHT22;4013;49.744;8.118;2023-10-09T19:52:42;19.20;99.90
7936;DHT22;4013;49.744;8.118;2023-10-09T19:55:10;19.10;99.90
7936;DHT22;4013;49.744;8.118;2023-10-09T19:57:38;19.00;99.90
7936;DHT22;4013;49.744;8.118;2023-10-09T20:00:05;18.80;99.90
7936;DHT22;4013;49.744;8.118;2023-10-09T20:02:39;18.80;99.90
7936;DHT22;4013;49.744;8.118;2023-10-09T20:05:09;18.80;99.90
7936;DHT22;4013;49.744;8.118;2023-10-09T20:07:40;18.70;99.90
7936;DHT22;4013;49.744;8.118;2023-10-09T20:10:07;18.60;99.90
7936;DHT22;4013;49.744;8.118;2023-10-09T20:12:34;18.60;99.90
7936;DHT22;4013;49.744;8.118;2023-10-09T20:15:01;18.60;99.90
7936;DHT22;4013;49.744;8.118;2023-10-09T20:17:30;18.60;99.90
7936;DHT22;4013;49.744;8.118;2023-10-09T20:19:58;18.60;99.90
7936;DHT22;4013;49.744;8.118;2023-10-09T20:22:26;18.50;99.90
7936;DHT22;4013;49.744;8.118;2023-10-09T20:24:53;18.50;99.90
7936;DHT22;4013;49.744;8.118;2023-10-09T20:27:20;18.30;99.90
7936;DHT22;4013;49.744;8.118;2023-10-09T20:29:48;18.30;99.90
7936;DHT22;4013;49.744;8.118;2023-10-09T20:32:16;18.20;99.90
7936;DHT22;4013;49.744;8.118;2023-10-09T20:34:45;18.10;99.90
7936;DHT22;4013;49.744;8.118;2023-10-09T20:37:12;18.00;99.90
7936;DHT22;4013;49.744;8.118;2023-10-09T20:39:43;18.00;99.90
7936;DHT22;4013;49.744;8.118;2023-10-09T20:42:11;18.00;99.90
7936;DHT22;4013;49.744;8.118;2023-10-09T20:44:38;17.90;99.90
7936;DHT22;4013;49.744;8.118;2023-10-09T20:47:05;17.80;99.90
7936;DHT22;4013;49.744;8.118;2023-10-09T20:49:32;17.70;99.90
7936;DHT22;4013;49.744;8.118;2023-10-09T20:51:58;17.60;99.90
7936;DHT22;4013;49.744;8.118;2023-10-09T20:54:27;17.60;99.90
7936;DHT22;4013;49.744;8.118;2023-10-09T20:56:56;17.60;99.90
7936;DHT22;4013;49.744;8.118;2023-10-09T20:59:22;17.60;99.90
7936;DHT22;4013;49.744;8.118;2023-10-09T21:01:49;17.60;99.90
7936;DHT22;4013;49.744;8.118;2023-10-09T21:04:19;17.60;99.90
7936;DHT22;4013;49.744;8.118;2023-10-09T21:06:46;17.50;99.90
7936;DHT22;4013;49.744;8.118;2023-10-09T21:09:13;17.50;99.90